sensor_id;sensor_type;location;lat;lon;timestamp;pressure;altitude;pressure_sealevel;temperature;humidity
73551;BME280;61816;53.582;10.096;2022-07-22T00:02:12;101397.91;;;19.85;82.00
73551;BME280;61816;53.582;10.096;2022-07-22T00:04:38;101398.75;;;19.85;81.38
73551;BME280;61816;53.582;10.096;2022-07-22T00:07:03;101394.53;;;19.83;81.85
73551;BME280;61816;53.582;10.096;2022-07-22T00:09:28;101405.84;;;19.66;82.42
73551;BME280;61816;53.582;10.096;2022-07-22T00:11:54;101410.69;;;19.58;83.42
73551;BME280;61816;53.582;10.096;2022-07-22T00:14:20;101399.53;;;19.72;82.76
73551;BME280;61816;53.582;10.096;2022-07-22T00:16:45;101416.03;;;19.72;82.44
73551;BME280;61816;53.582;10.096;2022-07-22T00:19:11;101399.78;;;19.77;82.12
73551;BME280;61816;53.582;10.096;2022-07-22T00:21:36;101408.38;;;19.61;83.00
73551;BME280;61816;53.582;10.096;2022-07-22T00:24:02;101408.41;;;19.74;82.70
73551;BME280;61816;53.582;10.096;2022-07-22T00:26:28;101404.69;;;19.89;82.00
73551;BME280;61816;53.582;10.096;2022-07-22T00:28:53;101411.91;;;20.03;81.25
73551;BME280;61816;53.582;10.096;2022-07-22T00:31:19;101407.25;;;20.03;80.88
73551;BME280;61816;53.582;10.096;2022-07-22T00:33:44;101415.88;;;19.46;81.83
73551;BME280;61816;53.582;10.096;2022-07-22T00:36:10;101418.81;;;19.38;82.63
73551;BME280;61816;53.582;10.096;2022-07-22T00:38:35;101428.22;;;18.94;82.95
73551;BME280;61816;53.582;10.096;2022-07-22T00:41:01;101424.69;;;18.72;83.92
73551;BME280;61816;53.582;10.096;2022-07-22T00:43:27;101425.38;;;18.59;84.85
73551;BME280;61816;53.582;10.096;2022-07-22T00:45:52;101431.00;;;18.30;85.53
73551;BME280;61816;53.582;10.096;2022-07-22T00:48:18;101428.91;;;18.32;85.36
73551;BME280;61816;53.582;10.096;2022-07-22T00:50:44;101437.88;;;18.04;86.22
73551;BME280;61816;53.582;10.096;2022-07-22T00:53:09;101434.50;;;18.02;87.01
73551;BME280;61816;53.582;10.096;2022-07-22T00:55:36;101433.31;;;18.11;86.26
73551;BME280;61816;53.582;10.096;2022-07-22T00:58:03;101437.75;;;17.91;85.92
73551;BME280;61816;53.582;10.096;2022-07-22T01:00:29;101435.41;;;18.09;85.02
73551;BME280;61816;53.582;10.096;2022-07-22T01:02:54;101438.81;;;18.11;85.45
73551;BME280;61816;53.582;10.096;2022-07-22T01:05:19;101441.19;;;18.14;85.06
73551;BME280;61816;53.582;10.096;2022-07-22T01:07:45;101439.72;;;18.18;85.11
73551;BME280;61816;53.582;10.096;2022-07-22T01:10:10;101447.44;;;18.30;84.56
73551;BME280;61816;53.582;10.096;2022-07-22T01:12:36;101444.28;;;18.11;84.54
73551;BME280;61816;53.582;10.096;2022-07-22T01:15:02;101448.06;;;17.89;85.27
73551;BME280;61816;53.582;10.096;2022-07-22T01:17:27;101437.78;;;17.61;86.57
73551;BME280;61816;53.582;10.096;2022-07-22T01:19:53;101446.63;;;17.34;87.88
73551;BME280;61816;53.582;10.096;2022-07-22T01:22:18;101440.81;;;17.37;88.65
73551;BME280;61816;53.582;10.096;2022-07-22T01:24:44;101450.41;;;17.33;88.23
73551;BME280;61816;53.582;10.096;2022-07-22T01:27:09;101463.34;;;17.24;87.61
73551;BME280;61816;53.582;10.096;2022-07-22T01:29:34;101455.03;;;17.03;88.49
73551;BME280;61816;53.582;10.096;2022-07-22T01:32:00;101456.88;;;16.88;88.58
73551;BME280;61816;53.582;10.096;2022-07-22T01:34:25;101462.31;;;16.73;89.13
73551;BME280;61816;53.582;10.096;2022-07-22T01:36:51;101470.75;;;16.63;88.12
73551;BME280;61816;53.582;10.096;2022-07-22T01:39:16;101466.91;;;16.49;88.77
73551;BME280;61816;53.582;10.096;2022-07-22T01:41:43;101470.13;;;16.53;88.21
73551;BME280;61816;53.582;10.096;2022-07-22T01:44:08;101463.94;;;16.36;87.52
73551;BME280;61816;53.582;10.096;2022-07-22T01:46:33;101479.72;;;16.26;87.35
73551;BME280;61816;53.582;10.096;2022-07-22T01:48:59;101471.94;;;16.15;86.94
73551;BME280;61816;53.582;10.096;2022-07-22T01:51:24;101479.59;;;16.42;87.08
73551;BME280;61816;53.582;10.096;2022-07-22T01:53:50;101479.59;;;16.42;85.89
73551;BME280;61816;53.582;10.096;2022-07-22T01:56:15;101489.22;;;16.38;85.38
73551;BME280;61816;53.582;10.096;2022-07-22T01:58:41;101489.22;;;16.38;85.32
73551;BME280;61816;53.582;10.096;2022-07-22T02:01:07;101493.06;;;16.21;84.83
73551;BME280;61816;53.582;10.096;2022-07-22T02:03:32;101491.00;;;16.23;84.59
73551;BME280;61816;53.582;10.096;2022-07-22T02:05:58;101487.88;;;16.34;84.75
73551;BME280;61816;53.582;10.096;2022-07-22T02:08:23;101488.25;;;16.31;84.93
73551;BME280;61816;53.582;10.096;2022-07-22T02:10:49;101497.19;;;16.17;86.28
73551;BME280;61816;53.582;10.096;2022-07-22T02:13:14;101492.81;;;16.08;86.70
73551;BME280;61816;53.582;10.096;2022-07-22T02:15:40;101489.03;;;16.09;86.71
73551;BME280;61816;53.582;10.096;2022-07-22T02:18:10;101490.41;;;16.13;86.75
73551;BME280;61816;53.582;10.096;2022-07-22T02:20:36;101497.94;;;16.34;86.23
73551;BME280;61816;53.582;10.096;2022-07-22T02:23:01;101496.84;;;16.20;85.84
73551;BME280;61816;53.582;10.096;2022-07-22T02:25:26;101506.41;;;16.16;86.04
73551;BME280;61816;53.582;10.096;2022-07-22T02:27:52;101502.94;;;16.30;85.20
73551;BME280;61816;53.582;10.096;2022-07-22T02:30:17;101502.13;;;16.21;84.31
73551;BME280;61816;53.582;10.096;2022-07-22T02:32:42;101500.88;;;16.32;84.49
73551;BME280;61816;53.582;10.096;2022-07-22T02:35:08;101500.41;;;16.51;83.93
73551;BME280;61816;53.582;10.096;2022-07-22T02:37:34;101502.19;;;16.36;83.89
73551;BME280;61816;53.582;10.096;2022-07-22T02:39:59;101507.91;;;16.26;84.51
73551;BME280;61816;53.582;10.096;2022-07-22T02:42:25;101507.38;;;16.31;84.43
73551;BME280;61816;53.582;10.096;2022-07-22T02:44:51;101503.53;;;16.40;84.02
73551;BME280;61816;53.582;10.096;2022-07-22T02:47:16;101513.19;;;16.28;84.21
73551;BME280;61816;53.582;10.096;2022-07-22T02:49:41;101510.56;;;16.12;83.58
73551;BME280;61816;53.582;10.096;2022-07-22T02:52:07;101510.31;;;16.21;84.36
73551;BME280;61816;53.582;10.096;2022-07-22T02:54:32;101517.72;;;16.13;84.88
73551;BME280;61816;53.582;10.096;2022-07-22T02:56:58;101515.66;;;16.15;85.38
73551;BME280;61816;53.582;10.096;2022-07-22T02:59:23;101527.47;;;16.38;84.10
73551;BME280;61816;53.582;10.096;2022-07-22T03:01:48;101525.59;;;16.08;85.14
73551;BME280;61816;53.582;10.096;2022-07-22T03:04:14;101523.53;;;16.10;84.97
73551;BME280;61816;53.582;10.096;2022-07-22T03:06:39;101516.38;;;16.09;83.95
73551;BME280;61816;53.582;10.096;2022-07-22T03:09:04;101521.47;;;16.12;83.75
73551;BME280;61816;53.582;10.096;2022-07-22T03:11:30;101531.06;;;16.08;83.60
73551;BME280;61816;53.582;10.096;2022-07-22T03:13:55;101522.66;;;16.09;84.25
73551;BME280;61816;53.582;10.096;2022-07-22T03:16:20;101524.59;;;16.00;83.86
73551;BME280;61816;53.582;10.096;2022-07-22T03:18:46;101528.97;;;16.10;83.43
73551;BME280;61816;53.582;10.096;2022-07-22T03:21:11;101527.09;;;16.18;83.56
73551;BME280;61816;53.582;10.096;2022-07-22T03:23:37;101534.00;;;16.29;83.23
73551;BME280;61816;53.582;10.096;2022-07-22T03:26:02;101521.81;;;16.09;83.62
73551;BME280;61816;53.582;10.096;2022-07-22T03:28:28;101521.22;;;15.98;84.06
73551;BME280;61816;53.582;10.096;2022-07-22T03:30:53;101526.38;;;15.85;84.29
73551;BME280;61816;53.582;10.096;2022-07-22T03:33:19;101521.94;;;15.84;85.68
73551;BME280;61816;53.582;10.096;2022-07-22T03:35:44;101532.13;;;15.98;85.62
73551;BME280;61816;53.582;10.096;2022-07-22T03:38:10;101524.56;;;16.09;84.52
73551;BME280;61816;53.582;10.096;2022-07-22T03:40:35;101529.34;;;16.07;84.09
73551;BME280;61816;53.582;10.096;2022-07-22T03:43:00;101522.97;;;15.83;85.44
73551;BME280;61816;53.582;10.096;2022-07-22T03:45:26;101536.19;;;16.11;84.90
73551;BME280;61816;53.582;10.096;2022-07-22T03:47:51;101529.34;;;16.07;83.62
73551;BME280;61816;53.582;10.096;2022-07-22T03:50:19;101528.72;;;15.96;84.33
73551;BME280;61816;53.582;10.096;2022-07-22T03:52:45;101529.25;;;16.23;83.84
73551;BME280;61816;53.582;10.096;2022-07-22T03:55:10;101531.31;;;16.21;83.66
73551;BME280;61816;53.582;10.096;2022-07-22T03:57:35;101524.81;;;16.30;83.02
73551;BME280;61816;53.582;10.096;2022-07-22T04:00:01;101530.16;;;16.46;82.81
73551;BME280;61816;53.582;10.096;2022-07-22T04:02:26;101527.22;;;16.25;82.02
73551;BME280;61816;53.582;10.096;2022-07-22T04:04:51;101530.34;;;16.14;83.29
73551;BME280;61816;53.582;10.096;2022-07-22T04:07:17;101530.63;;;16.27;82.59
73551;BME280;61816;53.582;10.096;2022-07-22T04:09:42;101529.63;;;16.20;83.57
73551;BME280;61816;53.582;10.096;2022-07-22T04:12:07;101524.31;;;16.26;83.58
73551;BME280;61816;53.582;10.096;2022-07-22T04:14:33;101529.53;;;16.05;83.11
73551;BME280;61816;53.582;10.096;2022-07-22T04:16:58;101518.38;;;16.15;83.51
73551;BME280;61816;53.582;10.096;2022-07-22T04:19:24;101527.81;;;16.35;82.92
73551;BME280;61816;53.582;10.096;2022-07-22T04:21:49;101529.34;;;16.07;82.61
73551;BME280;61816;53.582;10.096;2022-07-22T04:24:14;101537.38;;;16.08;83.34
73551;BME280;61816;53.582;10.096;2022-07-22T04:26:40;101532.31;;;16.28;82.99
73551;BME280;61816;53.582;10.096;2022-07-22T04:29:05;101542.75;;;16.24;82.83
73551;BME280;61816;53.582;10.096;2022-07-22T04:31:31;101541.00;;;16.00;83.53
73551;BME280;61816;53.582;10.096;2022-07-22T04:33:58;101543.81;;;16.15;83.27
73551;BME280;61816;53.582;10.096;2022-07-22T04:36:23;101551.03;;;16.39;82.71
73551;BME280;61816;53.582;10.096;2022-07-22T04:38:48;101551.75;;;16.33;82.85
73551;BME280;61816;53.582;10.096;2022-07-22T04:41:15;101555.78;;;16.45;82.12
73551;BME280;61816;53.582;10.096;2022-07-22T04:43:40;101567.50;;;16.23;82.73
73551;BME280;61816;53.582;10.096;2022-07-22T04:46:06;101543.94;;;16.22;82.78
73551;BME280;61816;53.582;10.096;2022-07-22T04:48:31;101546.09;;;16.04;83.78
73551;BME280;61816;53.582;10.096;2022-07-22T04:51:00;101551.53;;;16.04;83.29
73551;BME280;61816;53.582;10.096;2022-07-22T04:53:26;101554.97;;;16.06;83.80
73551;BME280;61816;53.582;10.096;2022-07-22T04:55:52;101549.22;;;16.32;83.55
73551;BME280;61816;53.582;10.096;2022-07-22T04:58:17;101543.69;;;16.09;84.51
73551;BME280;61816;53.582;10.096;2022-07-22T05:00:43;101556.78;;;15.74;86.29
73551;BME280;61816;53.582;10.096;2022-07-22T05:03:08;101553.25;;;15.65;87.55
73551;BME280;61816;53.582;10.096;2022-07-22T05:05:34;101551.16;;;15.76;87.82
73551;BME280;61816;53.582;10.096;2022-07-22T05:07:59;101558.78;;;15.88;86.72
73551;BME280;61816;53.582;10.096;2022-07-22T05:10:25;101558.03;;;16.02;86.77
73551;BME280;61816;53.582;10.096;2022-07-22T05:12:50;101563.56;;;15.94;86.80
73551;BME280;61816;53.582;10.096;2022-07-22T05:15:16;101556.03;;;15.96;87.92
73551;BME280;61816;53.582;10.096;2022-07-22T05:17:41;101558.94;;;15.95;87.66
73551;BME280;61816;53.582;10.096;2022-07-22T05:20:07;101556.00;;;16.05;88.10
73551;BME280;61816;53.582;10.096;2022-07-22T05:22:32;101553.91;;;16.15;87.13
73551;BME280;61816;53.582;10.096;2022-07-22T05:24:58;101570.78;;;15.79;88.33
73551;BME280;61816;53.582;10.096;2022-07-22T05:27:23;101563.91;;;15.91;88.11
73551;BME280;61816;53.582;10.096;2022-07-22T05:29:48;101568.50;;;15.99;88.42
73551;BME280;61816;53.582;10.096;2022-07-22T05:32:14;101561.44;;;16.13;87.98
73551;BME280;61816;53.582;10.096;2022-07-22T05:34:40;101567.59;;;16.07;87.96
73551;BME280;61816;53.582;10.096;2022-07-22T05:37:05;101571.94;;;16.32;87.28
73551;BME280;61816;53.582;10.096;2022-07-22T05:39:31;101571.00;;;16.09;84.94
73551;BME280;61816;53.582;10.096;2022-07-22T05:41:56;101571.38;;;16.06;84.31
73551;BME280;61816;53.582;10.096;2022-07-22T05:44:21;101566.19;;;16.19;84.40
73551;BME280;61816;53.582;10.096;2022-07-22T05:46:47;101571.69;;;16.02;84.13
73551;BME280;61816;53.582;10.096;2022-07-22T05:49:12;101568.69;;;15.97;83.42
73551;BME280;61816;53.582;10.096;2022-07-22T05:51:38;101570.28;;;16.15;83.72
73551;BME280;61816;53.582;10.096;2022-07-22T05:54:03;101578.56;;;15.98;84.13
73551;BME280;61816;53.582;10.096;2022-07-22T05:56:29;101571.78;;;16.25;82.75
73551;BME280;61816;53.582;10.096;2022-07-22T05:58:54;101573.31;;;16.28;83.48
73551;BME280;61816;53.582;10.096;2022-07-22T06:01:21;101577.03;;;16.35;81.96
73551;BME280;61816;53.582;10.096;2022-07-22T06:03:46;101575.59;;;16.47;82.32
73551;BME280;61816;53.582;10.096;2022-07-22T06:06:11;101581.91;;;16.48;82.08
73551;BME280;61816;53.582;10.096;2022-07-22T06:08:37;101572.44;;;16.59;80.78
73551;BME280;61816;53.582;10.096;2022-07-22T06:11:02;101573.50;;;16.49;81.27
73551;BME280;61816;53.582;10.096;2022-07-22T06:13:28;101574.97;;;16.37;81.86
73551;BME280;61816;53.582;10.096;2022-07-22T06:15:53;101576.69;;;16.61;81.08
73551;BME280;61816;53.582;10.096;2022-07-22T06:18:18;101575.19;;;16.59;80.21
73551;BME280;61816;53.582;10.096;2022-07-22T06:20:44;101572.78;;;16.64;80.94
73551;BME280;61816;53.582;10.096;2022-07-22T06:23:10;101562.38;;;16.82;81.30
73551;BME280;61816;53.582;10.096;2022-07-22T06:25:35;101572.56;;;16.96;79.30
73551;BME280;61816;53.582;10.096;2022-07-22T06:28:01;101570.38;;;16.61;80.88
73551;BME280;61816;53.582;10.096;2022-07-22T06:30:26;101578.97;;;16.58;80.93
73551;BME280;61816;53.582;10.096;2022-07-22T06:32:52;101578.97;;;16.58;80.50
73551;BME280;61816;53.582;10.096;2022-07-22T06:35:18;101584.91;;;16.92;80.39
73551;BME280;61816;53.582;10.096;2022-07-22T06:37:43;101578.53;;;16.69;79.80
73551;BME280;61816;53.582;10.096;2022-07-22T06:40:09;101585.63;;;16.86;80.39
73551;BME280;61816;53.582;10.096;2022-07-22T06:42:35;101587.22;;;17.03;80.04
73551;BME280;61816;53.582;10.096;2022-07-22T06:45:00;101581.75;;;17.03;79.41
73551;BME280;61816;53.582;10.096;2022-07-22T06:47:26;101578.81;;;17.28;80.07
73551;BME280;61816;53.582;10.096;2022-07-22T06:49:51;101585.22;;;17.35;78.33
73551;BME280;61816;53.582;10.096;2022-07-22T06:52:16;101582.94;;;17.01;79.43
73551;BME280;61816;53.582;10.096;2022-07-22T06:54:42;101583.44;;;17.04;79.08
73551;BME280;61816;53.582;10.096;2022-07-22T06:57:07;101584.63;;;17.25;78.13
73551;BME280;61816;53.582;10.096;2022-07-22T06:59:32;101576.56;;;17.08;76.40
73551;BME280;61816;53.582;10.096;2022-07-22T07:01:58;101591.72;;;16.96;76.25
73551;BME280;61816;53.582;10.096;2022-07-22T07:04:23;101580.78;;;16.96;78.08
73551;BME280;61816;53.582;10.096;2022-07-22T07:06:49;101577.47;;;17.24;76.65
73551;BME280;61816;53.582;10.096;2022-07-22T07:09:14;101585.38;;;17.19;74.79
73551;BME280;61816;53.582;10.096;2022-07-22T07:11:40;101581.84;;;17.10;77.25
73551;BME280;61816;53.582;10.096;2022-07-22T07:14:05;101583.06;;;17.45;76.64
73551;BME280;61816;53.582;10.096;2022-07-22T07:16:31;101588.75;;;17.21;77.03
73551;BME280;61816;53.582;10.096;2022-07-22T07:18:57;101585.97;;;17.29;77.01
73551;BME280;61816;53.582;10.096;2022-07-22T07:21:22;101586.31;;;17.26;75.69
73551;BME280;61816;53.582;10.096;2022-07-22T07:23:48;101594.53;;;17.26;74.75
73551;BME280;61816;53.582;10.096;2022-07-22T07:26:13;101586.53;;;17.39;73.64
73551;BME280;61816;53.582;10.096;2022-07-22T07:28:39;101597.66;;;17.23;75.05
73551;BME280;61816;53.582;10.096;2022-07-22T07:31:04;101608.44;;;17.39;72.45
73551;BME280;61816;53.582;10.096;2022-07-22T07:33:30;101602.63;;;17.42;73.34
73551;BME280;61816;53.582;10.096;2022-07-22T07:35:55;101613.19;;;17.45;73.50
73551;BME280;61816;53.582;10.096;2022-07-22T07:38:22;101615.84;;;17.53;73.14
73551;BME280;61816;53.582;10.096;2022-07-22T07:40:48;101610.03;;;17.33;73.24
73551;BME280;61816;53.582;10.096;2022-07-22T07:43:14;101612.16;;;17.08;74.38
73551;BME280;61816;53.582;10.096;2022-07-22T07:45:40;101600.81;;;17.12;74.19
73551;BME280;61816;53.582;10.096;2022-07-22T07:48:06;101597.03;;;17.13;75.06
73551;BME280;61816;53.582;10.096;2022-07-22T07:50:31;101600.47;;;16.92;74.20
73551;BME280;61816;53.582;10.096;2022-07-22T07:52:57;101604.34;;;16.97;73.54
73551;BME280;61816;53.582;10.096;2022-07-22T07:55:24;101601.13;;;17.17;71.91
73551;BME280;61816;53.582;10.096;2022-07-22T07:57:50;101599.13;;;17.11;71.93
73551;BME280;61816;53.582;10.096;2022-07-22T08:00:21;101597.13;;;17.42;71.71
73551;BME280;61816;53.582;10.096;2022-07-22T08:02:47;101609.28;;;17.40;71.35
73551;BME280;61816;53.582;10.096;2022-07-22T08:05:13;101614.34;;;17.66;70.99
73551;BME280;61816;53.582;10.096;2022-07-22T08:07:39;101605.63;;;17.85;71.10
73551;BME280;61816;53.582;10.096;2022-07-22T08:10:06;101616.31;;;18.09;70.27
73551;BME280;61816;53.582;10.096;2022-07-22T08:12:32;101619.16;;;18.01;69.35
73551;BME280;61816;53.582;10.096;2022-07-22T08:14:58;101617.63;;;17.84;69.40
73551;BME280;61816;53.582;10.096;2022-07-22T08:17:23;101625.75;;;17.92;67.43
73551;BME280;61816;53.582;10.096;2022-07-22T08:19:49;101622.75;;;17.87;68.74
73551;BME280;61816;53.582;10.096;2022-07-22T08:22:14;101628.69;;;17.90;67.82
73551;BME280;61816;53.582;10.096;2022-07-22T08:24:39;101630.66;;;17.82;68.21
73551;BME280;61816;53.582;10.096;2022-07-22T08:27:05;101638.47;;;17.47;68.67
73551;BME280;61816;53.582;10.096;2022-07-22T08:29:30;101635.81;;;17.39;68.65
73551;BME280;61816;53.582;10.096;2022-07-22T08:31:56;101637.09;;;17.51;68.14
73551;BME280;61816;53.582;10.096;2022-07-22T08:34:21;101641.03;;;17.72;68.38
73551;BME280;61816;53.582;10.096;2022-07-22T08:36:46;101641.81;;;17.95;68.31
73551;BME280;61816;53.582;10.096;2022-07-22T08:39:12;101636.69;;;17.92;66.63
73551;BME280;61816;53.582;10.096;2022-07-22T08:41:38;101636.13;;;18.11;64.41
73551;BME280;61816;53.582;10.096;2022-07-22T08:44:07;101638.03;;;17.96;63.31
73551;BME280;61816;53.582;10.096;2022-07-22T08:46:33;101640.22;;;18.01;64.03
73551;BME280;61816;53.582;10.096;2022-07-22T08:48:58;101632.16;;;18.58;61.62
73551;BME280;61816;53.582;10.096;2022-07-22T08:51:27;101636.50;;;18.67;60.23
73551;BME280;61816;53.582;10.096;2022-07-22T08:53:54;101631.16;;;18.81;59.37
73551;BME280;61816;53.582;10.096;2022-07-22T08:56:21;101629.75;;;19.06;59.89
73551;BME280;61816;53.582;10.096;2022-07-22T08:58:47;101631.31;;;18.94;59.80
73551;BME280;61816;53.582;10.096;2022-07-22T09:01:14;101647.81;;;18.64;60.43
73551;BME280;61816;53.582;10.096;2022-07-22T09:03:51;101643.63;;;18.32;61.59
73551;BME280;61816;53.582;10.096;2022-07-22T09:06:23;101647.19;;;18.03;62.95
73551;BME280;61816;53.582;10.096;2022-07-22T09:08:55;101659.00;;;18.18;62.94
73551;BME280;61816;53.582;10.096;2022-07-22T09:11:23;101648.59;;;17.99;62.35
73551;BME280;61816;53.582;10.096;2022-07-22T09:13:50;101662.59;;;18.04;63.01
73551;BME280;61816;53.582;10.096;2022-07-22T09:16:15;101656.38;;;18.10;63.34
73551;BME280;61816;53.582;10.096;2022-07-22T09:18:52;101646.44;;;18.39;62.29
73551;BME280;61816;53.582;10.096;2022-07-22T09:21:20;101636.31;;;18.54;61.73
73551;BME280;61816;53.582;10.096;2022-07-22T09:23:45;101645.38;;;18.69;60.95
73551;BME280;61816;53.582;10.096;2022-07-22T09:26:32;101644.22;;;18.79;59.88
73551;BME280;61816;53.582;10.096;2022-07-22T09:28:59;101639.75;;;18.92;59.31
73551;BME280;61816;53.582;10.096;2022-07-22T09:31:30;101651.44;;;19.22;58.86
73551;BME280;61816;53.582;10.096;2022-07-22T09:33:56;101647.25;;;19.69;57.48
73551;BME280;61816;53.582;10.096;2022-07-22T09:36:22;101641.09;;;19.03;57.53
73551;BME280;61816;53.582;10.096;2022-07-22T09:38:48;101650.94;;;19.12;58.13
73551;BME280;61816;53.582;10.096;2022-07-22T09:41:14;101642.69;;;19.12;58.42
73551;BME280;61816;53.582;10.096;2022-07-22T09:43:39;101642.72;;;18.61;58.56
73551;BME280;61816;53.582;10.096;2022-07-22T09:46:05;101652.19;;;18.44;59.15
73551;BME280;61816;53.582;10.096;2022-07-22T09:48:31;101649.91;;;18.62;58.25
73551;BME280;61816;53.582;10.096;2022-07-22T09:50:58;101671.88;;;18.03;60.63
73551;BME280;61816;53.582;10.096;2022-07-22T09:53:26;101672.25;;;18.30;60.63
73551;BME280;61816;53.582;10.096;2022-07-22T09:56:00;101666.03;;;18.06;61.14
73551;BME280;61816;53.582;10.096;2022-07-22T09:58:26;101672.44;;;18.43;60.14
73551;BME280;61816;53.582;10.096;2022-07-22T10:00:53;101675.56;;;18.40;60.20
73551;BME280;61816;53.582;10.096;2022-07-22T10:03:27;101673.72;;;18.77;59.33
73551;BME280;61816;53.582;10.096;2022-07-22T10:05:54;101666.56;;;18.97;58.53
73551;BME280;61816;53.582;10.096;2022-07-22T10:08:21;101679.66;;;19.16;57.75
73551;BME280;61816;53.582;10.096;2022-07-22T10:10:48;101678.50;;;19.04;58.03
73551;BME280;61816;53.582;10.096;2022-07-22T10:13:17;101665.00;;;19.24;57.89
73551;BME280;61816;53.582;10.096;2022-07-22T10:15:44;101670.13;;;19.34;57.78
73551;BME280;61816;53.582;10.096;2022-07-22T10:18:15;101675.63;;;18.91;58.36
73551;BME280;61816;53.582;10.096;2022-07-22T10:20:41;101674.59;;;19.13;58.60
73551;BME280;61816;53.582;10.096;2022-07-22T10:23:09;101657.47;;;18.75;59.15
73551;BME280;61816;53.582;10.096;2022-07-22T10:28:35;101674.31;;;19.08;59.32
73551;BME280;61816;53.582;10.096;2022-07-22T10:31:21;101675.50;;;19.20;59.38
73551;BME280;61816;53.582;10.096;2022-07-22T10:33:52;101662.13;;;18.60;60.85
73551;BME280;61816;53.582;10.096;2022-07-22T10:36:31;101678.84;;;18.50;60.50
73551;BME280;61816;53.582;10.096;2022-07-22T10:39:13;101682.75;;;18.41;60.36
73551;BME280;61816;53.582;10.096;2022-07-22T10:41:44;101682.09;;;18.68;59.79
73551;BME280;61816;53.582;10.096;2022-07-22T10:44:10;101687.69;;;18.46;59.95
73551;BME280;61816;53.582;10.096;2022-07-22T10:46:51;101681.72;;;18.72;59.99
73551;BME280;61816;53.582;10.096;2022-07-22T10:49:20;101678.69;;;18.66;58.98
73551;BME280;61816;53.582;10.096;2022-07-22T10:57:40;101691.03;;;18.77;58.43
73551;BME280;61816;53.582;10.096;2022-07-22T11:00:06;101695.47;;;18.63;58.44
73551;BME280;61816;53.582;10.096;2022-07-22T11:02:34;101688.03;;;18.42;59.11
73551;BME280;61816;53.582;10.096;2022-07-22T11:05:01;101692.50;;;18.58;59.07
73551;BME280;61816;53.582;10.096;2022-07-22T11:07:27;101684.00;;;19.04;57.40
73551;BME280;61816;53.582;10.096;2022-07-22T11:10:11;101700.75;;;19.52;55.33
73551;BME280;61816;53.582;10.096;2022-07-22T11:12:37;101688.72;;;19.32;54.64
73551;BME280;61816;53.582;10.096;2022-07-22T11:15:03;101692.50;;;19.31;54.43
73551;BME280;61816;53.582;10.096;2022-07-22T11:17:31;101688.13;;;18.79;55.62
73551;BME280;61816;53.582;10.096;2022-07-22T11:20:00;101685.28;;;18.87;56.17
73551;BME280;61816;53.582;10.096;2022-07-22T11:22:26;101682.41;;;18.95;56.69
73551;BME280;61816;53.582;10.096;2022-07-22T11:24:52;101688.28;;;18.92;56.72
73551;BME280;61816;53.582;10.096;2022-07-22T11:27:19;101686.97;;;19.09;56.81
73551;BME280;61816;53.582;10.096;2022-07-22T11:29:48;101692.75;;;19.57;55.83
73551;BME280;61816;53.582;10.096;2022-07-22T11:32:14;101678.41;;;20.11;54.60
73551;BME280;61816;53.582;10.096;2022-07-22T11:34:42;101688.41;;;20.19;54.02
73551;BME280;61816;53.582;10.096;2022-07-22T11:37:10;101689.22;;;19.42;55.56
73551;BME280;61816;53.582;10.096;2022-07-22T11:39:36;101683.31;;;19.02;56.32
73551;BME280;61816;53.582;10.096;2022-07-22T11:42:01;101685.69;;;19.27;55.92
73551;BME280;61816;53.582;10.096;2022-07-22T11:44:30;101692.84;;;18.85;57.07
73551;BME280;61816;53.582;10.096;2022-07-22T11:46:56;101684.78;;;18.83;57.14
73551;BME280;61816;53.582;10.096;2022-07-22T11:49:24;101693.94;;;19.05;56.92
73551;BME280;61816;53.582;10.096;2022-07-22T11:51:51;101690.78;;;19.30;56.22
73551;BME280;61816;53.582;10.096;2022-07-22T11:54:16;101683.84;;;19.55;56.04
73551;BME280;61816;53.582;10.096;2022-07-22T11:56:43;101689.22;;;19.42;56.38
73551;BME280;61816;53.582;10.096;2022-07-22T11:59:14;101693.28;;;19.24;57.17
73551;BME280;61816;53.582;10.096;2022-07-22T12:01:40;101686.41;;;19.14;56.14
73551;BME280;61816;53.582;10.096;2022-07-22T12:04:21;101678.59;;;18.96;57.08
73551;BME280;61816;53.582;10.096;2022-07-22T12:06:47;101679.16;;;19.28;55.11
73551;BME280;61816;53.582;10.096;2022-07-22T12:09:21;101679.28;;;19.62;54.74
73551;BME280;61816;53.582;10.096;2022-07-22T12:11:49;101684.38;;;19.87;53.58
73551;BME280;61816;53.582;10.096;2022-07-22T12:14:26;101691.38;;;19.89;54.13
73551;BME280;61816;53.582;10.096;2022-07-22T12:16:56;101678.19;;;20.13;52.93
73551;BME280;61816;53.582;10.096;2022-07-22T12:19:23;101699.19;;;19.64;53.03
73551;BME280;61816;53.582;10.096;2022-07-22T12:22:01;101679.28;;;19.19;54.06
73551;BME280;61816;53.582;10.096;2022-07-22T12:27:07;101691.25;;;19.33;55.25
73551;BME280;61816;53.582;10.096;2022-07-22T12:32:06;101683.22;;;19.32;55.02
73551;BME280;61816;53.582;10.096;2022-07-22T12:34:44;101703.38;;;19.17;55.21
73551;BME280;61816;53.582;10.096;2022-07-22T12:40:05;101683.94;;;18.97;55.19
73551;BME280;61816;53.582;10.096;2022-07-22T12:42:39;101683.16;;;18.89;55.65
73551;BME280;61816;53.582;10.096;2022-07-22T12:45:18;101678.31;;;19.06;55.36
73551;BME280;61816;53.582;10.096;2022-07-22T12:47:55;101680.28;;;19.33;54.48
73551;BME280;61816;53.582;10.096;2022-07-22T12:50:33;101676.28;;;19.14;54.60
73551;BME280;61816;53.582;10.096;2022-07-22T12:55:33;101693.53;;;19.08;53.63
73551;BME280;61816;53.582;10.096;2022-07-22T12:57:59;101672.09;;;19.18;52.90